createdAt,value
2022-12-16T00:02:17.310Z,35.30
2022-12-16T00:04:43.646Z,34.97
2022-12-16T00:07:09.962Z,35.57
2022-12-16T00:09:36.297Z,33.27
2022-12-16T00:12:02.615Z,34.83
2022-12-16T00:14:29.319Z,35.60
2022-12-16T00:16:55.636Z,36.00
2022-12-16T00:19:21.967Z,35.27
2022-12-16T00:21:48.282Z,34.47
2022-12-16T00:24:14.588Z,33.43
2022-12-16T00:26:40.913Z,35.77
2022-12-16T00:29:07.286Z,34.80
2022-12-16T00:31:33.684Z,33.73
2022-12-16T00:34:00.060Z,37.17
2022-12-16T00:36:26.404Z,35.60
2022-12-16T00:38:52.751Z,34.03
2022-12-16T00:41:19.862Z,35.97
2022-12-16T00:43:46.296Z,36.50
2022-12-16T00:46:12.670Z,35.70
2022-12-16T00:48:39.045Z,35.63
2022-12-16T00:51:05.710Z,35.97
2022-12-16T00:53:32.349Z,35.70
2022-12-16T00:55:58.892Z,36.67
2022-12-16T00:58:25.214Z,37.03
2022-12-16T01:00:51.548Z,34.83
2022-12-16T01:03:21.728Z,36.20
2022-12-16T01:05:48.503Z,35.53
2022-12-16T01:08:14.813Z,33.83
2022-12-16T01:10:41.127Z,35.27
2022-12-16T01:13:07.442Z,34.57
2022-12-16T01:15:34.830Z,36.40
2022-12-16T01:18:01.161Z,34.27
2022-12-16T01:20:27.527Z,35.90
2022-12-16T01:22:53.830Z,36.77
2022-12-16T01:25:21.240Z,36.13
2022-12-16T01:27:47.574Z,34.93
2022-12-16T01:30:13.895Z,34.43
2022-12-16T01:32:40.244Z,36.67
2022-12-16T01:35:18.109Z,35.20
2022-12-16T01:37:52.855Z,35.10
2022-12-16T01:40:21.165Z,35.30
2022-12-16T01:42:47.586Z,36.93
2022-12-16T01:45:13.907Z,36.37
2022-12-16T01:47:40.233Z,36.80
2022-12-16T01:50:06.549Z,36.67
2022-12-16T01:52:33.033Z,34.47
2022-12-16T01:54:59.350Z,35.53
2022-12-16T01:57:25.741Z,36.13
2022-12-16T01:59:52.051Z,36.80
2022-12-16T02:02:18.786Z,34.80
2022-12-16T02:05:05.207Z,34.90
2022-12-16T02:07:31.567Z,36.30
2022-12-16T02:09:57.871Z,35.70
2022-12-16T02:12:24.196Z,34.90
2022-12-16T02:14:50.637Z,35.67
2022-12-16T02:17:17.089Z,36.27
2022-12-16T02:19:43.426Z,35.17
2022-12-16T02:22:09.747Z,35.50
2022-12-16T02:24:36.068Z,37.37
2022-12-16T02:27:02.386Z,36.70
2022-12-16T02:29:28.757Z,37.07
2022-12-16T02:31:55.255Z,38.23
2022-12-16T02:34:21.597Z,37.87
2022-12-16T02:36:48.463Z,35.47
2022-12-16T02:39:15.572Z,34.73
2022-12-16T02:41:42.445Z,36.13
2022-12-16T02:44:08.777Z,36.87
2022-12-16T02:46:35.133Z,37.30
2022-12-16T02:49:01.481Z,35.93
2022-12-16T02:51:27.827Z,36.83
2022-12-16T02:53:54.152Z,34.93
2022-12-16T02:56:20.756Z,37.63
2022-12-16T02:58:47.105Z,37.27
2022-12-16T03:01:13.498Z,38.53
2022-12-16T03:03:43.666Z,37.40
2022-12-16T03:06:10.559Z,35.60
2022-12-16T03:08:36.900Z,36.13
2022-12-16T03:11:03.513Z,37.90
2022-12-16T03:13:30.046Z,35.60
2022-12-16T03:15:56.536Z,37.83
2022-12-16T03:18:22.851Z,35.40
2022-12-16T03:20:49.150Z,36.23
2022-12-16T03:23:15.473Z,36.53
2022-12-16T03:25:41.775Z,36.03
2022-12-16T03:28:08.098Z,35.63
2022-12-16T03:30:34.483Z,35.03
2022-12-16T03:33:00.838Z,34.40
2022-12-16T03:35:27.183Z,33.83
2022-12-16T03:37:53.485Z,35.57
2022-12-16T03:40:19.814Z,34.67
2022-12-16T03:42:46.136Z,33.27
2022-12-16T03:45:12.501Z,34.00
2022-12-16T03:47:38.816Z,34.63
2022-12-16T03:50:05.135Z,32.60
2022-12-16T03:52:31.448Z,33.63
2022-12-16T03:54:57.775Z,33.97
2022-12-16T03:57:24.122Z,31.60
2022-12-16T03:59:50.426Z,32.57
2022-12-16T04:02:16.828Z,31.20
2022-12-16T04:04:43.323Z,31.67
2022-12-16T04:07:21.966Z,33.03
2022-12-16T04:09:48.269Z,31.13
2022-12-16T04:12:33.401Z,30.80
2022-12-16T04:15:38.234Z,29.37
2022-12-16T04:18:23.103Z,31.27
2022-12-16T04:21:11.610Z,31.13
2022-12-16T04:23:56.533Z,29.97
2022-12-16T04:26:22.877Z,31.33
2022-12-16T04:28:49.178Z,28.43
2022-12-16T04:31:15.557Z,28.73
2022-12-16T04:34:00.670Z,28.50
2022-12-16T04:36:45.700Z,29.90
2022-12-16T04:39:30.836Z,28.80
2022-12-16T04:42:16.043Z,28.93
2022-12-16T04:45:01.189Z,26.17
2022-12-16T04:47:46.176Z,27.43
2022-12-16T04:50:31.182Z,26.80
2022-12-16T04:53:16.133Z,27.03
2022-12-16T04:56:04.319Z,27.83
2022-12-16T04:58:50.232Z,27.27
2022-12-16T05:01:35.339Z,27.43
2022-12-16T05:04:20.457Z,25.87
2022-12-16T05:07:05.387Z,25.27
2022-12-16T05:09:50.317Z,25.80
2022-12-16T05:12:35.444Z,25.97
2022-12-16T05:15:20.478Z,25.27
2022-12-16T05:18:05.239Z,24.97
2022-12-16T05:20:50.233Z,25.77
2022-12-16T05:23:35.571Z,24.97
2022-12-16T05:26:20.888Z,26.53
2022-12-16T05:29:06.186Z,25.57
2022-12-16T05:31:51.142Z,28.43
2022-12-16T05:34:36.150Z,25.17
2022-12-16T05:37:21.030Z,26.33
2022-12-16T05:40:06.017Z,25.00
2022-12-16T05:42:51.011Z,26.10
2022-12-16T05:45:35.861Z,24.70
2022-12-16T05:48:20.953Z,24.77
2022-12-16T05:51:05.838Z,25.97
2022-12-16T05:53:50.746Z,23.60
2022-12-16T05:56:35.669Z,24.90
2022-12-16T05:59:20.685Z,25.17
2022-12-16T06:02:05.714Z,24.03
2022-12-16T06:04:50.909Z,25.77
2022-12-16T06:07:35.848Z,26.47
2022-12-16T06:10:20.707Z,24.27
2022-12-16T06:13:05.608Z,28.63
2022-12-16T06:15:50.810Z,28.97
2022-12-16T06:18:36.058Z,27.10
2022-12-16T06:21:21.038Z,28.47
2022-12-16T06:24:06.086Z,28.57
2022-12-16T06:26:50.928Z,28.17
2022-12-16T06:29:35.835Z,28.90
2022-12-16T06:32:20.925Z,27.07
2022-12-16T06:35:05.903Z,28.63
2022-12-16T06:37:50.854Z,25.47
2022-12-16T06:40:35.726Z,23.90
2022-12-16T06:43:20.815Z,26.63
2022-12-16T06:46:05.872Z,24.53
2022-12-16T06:48:50.885Z,26.07
2022-12-16T06:51:35.918Z,24.97
2022-12-16T06:54:20.808Z,24.60
2022-12-16T06:57:05.734Z,24.30
2022-12-16T06:59:54.299Z,24.07
2022-12-16T07:02:39.548Z,26.63
2022-12-16T07:05:24.869Z,25.63
2022-12-16T07:08:09.930Z,24.63
2022-12-16T07:10:55.727Z,26.67
2022-12-16T07:13:42.908Z,26.83
2022-12-16T07:16:27.794Z,25.40
2022-12-16T07:19:13.112Z,25.60
2022-12-16T07:21:58.060Z,28.30
2022-12-16T07:24:42.985Z,27.17
2022-12-16T07:27:27.937Z,27.77
2022-12-16T07:30:12.883Z,27.87
2022-12-16T07:32:57.734Z,28.73
2022-12-16T07:35:44.506Z,28.00
2022-12-16T07:38:29.569Z,29.37
2022-12-16T07:41:14.676Z,27.50
2022-12-16T07:43:59.804Z,29.67
2022-12-16T07:46:44.812Z,30.07
2022-12-16T07:49:29.683Z,30.60
2022-12-16T07:52:14.549Z,30.60
2022-12-16T07:54:59.642Z,32.10
2022-12-16T07:57:44.856Z,30.53
2022-12-16T08:00:29.707Z,32.10
2022-12-16T08:03:14.692Z,31.90
2022-12-16T08:05:59.876Z,32.47
2022-12-16T08:08:44.759Z,32.70
2022-12-16T08:11:29.635Z,33.50
2022-12-16T08:14:14.458Z,33.20
2022-12-16T08:16:59.455Z,37.50
2022-12-16T08:19:44.780Z,35.13
2022-12-16T08:22:30.023Z,32.93
2022-12-16T08:25:14.980Z,34.60
2022-12-16T08:27:59.894Z,35.13
2022-12-16T08:30:44.896Z,34.00
2022-12-16T08:33:30.144Z,33.63
2022-12-16T08:36:14.990Z,39.10
2022-12-16T08:38:59.899Z,38.13
2022-12-16T08:41:44.883Z,41.03
2022-12-16T08:44:29.710Z,38.50
2022-12-16T08:47:14.654Z,40.17
2022-12-16T08:50:02.020Z,40.13
2022-12-16T08:52:47.710Z,38.97
2022-12-16T08:55:32.761Z,44.40
2022-12-16T08:58:17.640Z,43.27
2022-12-16T09:01:07.110Z,43.20
2022-12-16T09:03:52.837Z,41.03
2022-12-16T09:06:40.584Z,41.17
2022-12-16T09:09:26.061Z,42.73
2022-12-16T09:12:11.004Z,42.77
2022-12-16T09:14:56.093Z,42.50
2022-12-16T09:17:41.644Z,39.77
2022-12-16T09:20:26.494Z,40.67
2022-12-16T09:23:11.533Z,41.80
2022-12-16T09:25:56.491Z,41.50
2022-12-16T09:28:41.666Z,43.70
2022-12-16T09:31:26.607Z,40.10
2022-12-16T09:34:11.940Z,41.87
2022-12-16T09:36:56.963Z,42.70
2022-12-16T09:39:42.365Z,41.53
2022-12-16T09:42:27.333Z,41.40
2022-12-16T09:45:12.183Z,41.63
2022-12-16T09:47:57.147Z,36.70
2022-12-16T09:50:42.083Z,36.70
2022-12-16T09:53:27.055Z,36.43
2022-12-16T09:56:12.008Z,37.53
2022-12-16T09:58:56.906Z,36.17
2022-12-16T10:01:41.885Z,36.30
2022-12-16T10:04:27.109Z,35.57
2022-12-16T10:07:12.391Z,36.33
2022-12-16T10:09:57.506Z,37.63
2022-12-16T10:12:45.431Z,38.00
2022-12-16T10:15:30.630Z,38.93
2022-12-16T10:18:15.739Z,37.37
2022-12-16T10:21:00.971Z,37.87
2022-12-16T10:23:45.891Z,35.63
2022-12-16T10:26:30.926Z,36.87
2022-12-16T10:29:15.849Z,37.77
2022-12-16T10:32:00.764Z,36.53
2022-12-16T10:34:45.782Z,36.83
2022-12-16T10:37:30.952Z,34.57
2022-12-16T10:40:15.828Z,34.37
2022-12-16T10:43:00.647Z,36.53
2022-12-16T10:45:45.657Z,36.20
2022-12-16T10:48:30.872Z,35.60
2022-12-16T10:51:16.288Z,35.87
2022-12-16T10:54:01.489Z,37.77
2022-12-16T10:56:46.334Z,36.30
2022-12-16T10:59:31.650Z,36.17
2022-12-16T11:02:16.673Z,37.73
2022-12-16T11:05:01.919Z,37.03
2022-12-16T11:07:46.864Z,39.07
2022-12-16T11:10:31.828Z,36.47
2022-12-16T11:13:16.743Z,36.20
2022-12-16T11:16:01.666Z,40.43
2022-12-16T11:18:47.054Z,37.50
2022-12-16T11:21:31.921Z,37.73
2022-12-16T11:24:16.950Z,37.37
2022-12-16T11:27:01.925Z,38.57
2022-12-16T11:29:46.851Z,36.07
2022-12-16T11:32:31.786Z,35.73
2022-12-16T11:35:16.596Z,37.50
2022-12-16T11:38:01.604Z,37.90
2022-12-16T11:40:46.727Z,37.17
2022-12-16T11:43:32.153Z,35.87
2022-12-16T11:46:17.414Z,36.57
2022-12-16T11:49:02.750Z,36.63
2022-12-16T11:51:47.799Z,38.90
2022-12-16T11:54:32.714Z,39.43
2022-12-16T11:57:17.523Z,37.73
2022-12-16T12:00:02.562Z,37.97
2022-12-16T12:02:47.710Z,39.37
2022-12-16T12:05:32.914Z,36.60
2022-12-16T12:08:18.182Z,38.40
2022-12-16T12:11:03.053Z,36.10
2022-12-16T12:13:47.947Z,40.80
2022-12-16T12:16:33.000Z,37.47
2022-12-16T12:19:18.200Z,35.10
2022-12-16T12:22:03.107Z,36.57
2022-12-16T12:24:47.974Z,37.43
2022-12-16T12:27:33.107Z,41.23
2022-12-16T12:30:18.074Z,37.47
2022-12-16T12:33:23.259Z,39.83
2022-12-16T12:36:11.382Z,38.80
2022-12-16T12:38:56.215Z,37.73
2022-12-16T12:41:41.312Z,36.20
2022-12-16T12:44:36.458Z,37.10
2022-12-16T12:47:27.245Z,37.07
2022-12-16T12:50:12.250Z,36.60
2022-12-16T12:52:57.173Z,38.27
2022-12-16T12:55:42.178Z,38.40
2022-12-16T12:58:27.350Z,38.27
2022-12-16T13:01:12.613Z,37.90
2022-12-16T13:03:57.825Z,38.73
2022-12-16T13:06:42.673Z,38.87
2022-12-16T13:09:27.633Z,38.37
2022-12-16T13:12:12.536Z,37.67
2022-12-16T13:14:57.587Z,38.47
2022-12-16T13:17:42.409Z,38.80
2022-12-16T13:20:27.406Z,36.27
2022-12-16T13:23:12.721Z,40.37
2022-12-16T13:25:57.894Z,39.00
2022-12-16T13:28:42.822Z,37.43
2022-12-16T13:31:27.814Z,36.90
2022-12-16T13:34:13.090Z,38.40
2022-12-16T13:36:58.384Z,37.07
2022-12-16T13:39:43.403Z,38.27
2022-12-16T13:42:28.323Z,38.10
2022-12-16T13:45:13.356Z,39.30
2022-12-16T13:47:58.425Z,37.23
2022-12-16T13:50:43.334Z,38.47
2022-12-16T13:53:28.212Z,39.90
2022-12-16T13:56:13.159Z,37.10
2022-12-16T13:58:58.258Z,39.57
2022-12-16T14:01:44.946Z,36.93
2022-12-16T14:04:30.005Z,37.43
2022-12-16T14:07:17.618Z,38.87
2022-12-16T14:10:06.457Z,39.57
2022-12-16T14:12:51.391Z,39.47
2022-12-16T14:15:36.358Z,41.13
2022-12-16T14:18:21.234Z,39.53
2022-12-16T14:21:06.258Z,40.60
2022-12-16T14:23:58.780Z,38.60
2022-12-16T14:26:43.988Z,37.47
2022-12-16T14:29:28.923Z,38.60
2022-12-16T14:32:14.048Z,40.30
2022-12-16T14:34:59.327Z,40.83
2022-12-16T14:37:44.362Z,40.57
2022-12-16T14:40:29.276Z,37.63
2022-12-16T14:43:14.249Z,36.20
2022-12-16T14:45:59.220Z,40.23
2022-12-16T14:48:49.622Z,40.07
2022-12-16T14:51:34.919Z,40.13
2022-12-16T14:54:19.733Z,39.53
2022-12-16T14:57:04.685Z,40.47
2022-12-16T14:59:49.587Z,41.47
2022-12-16T15:02:34.730Z,39.20
2022-12-16T15:05:19.978Z,38.50
2022-12-16T15:08:04.909Z,39.77
2022-12-16T15:10:49.912Z,39.77
2022-12-16T15:13:35.134Z,39.20
2022-12-16T15:16:20.583Z,41.73
2022-12-16T15:19:05.873Z,43.47
2022-12-16T15:21:50.838Z,42.53
2022-12-16T15:24:36.286Z,40.40
2022-12-16T15:27:21.184Z,38.27
2022-12-16T15:30:06.095Z,40.53
2022-12-16T15:32:50.899Z,40.50
2022-12-16T15:35:35.851Z,40.73
2022-12-16T15:38:20.664Z,38.63
2022-12-16T15:41:25.517Z,41.00
2022-12-16T15:44:12.293Z,39.73
2022-12-16T15:46:57.225Z,39.80
2022-12-16T15:49:42.166Z,40.30
2022-12-16T15:52:27.072Z,40.83
2022-12-16T15:55:12.113Z,40.30
2022-12-16T15:57:57.088Z,41.70
2022-12-16T16:00:42.252Z,40.87
2022-12-16T16:03:27.508Z,38.57
2022-12-16T16:06:12.874Z,40.80
2022-12-16T16:08:57.770Z,39.30
2022-12-16T16:11:42.797Z,44.40
2022-12-16T16:14:27.882Z,44.07
2022-12-16T16:17:12.892Z,42.90
2022-12-16T16:20:03.197Z,40.97
2022-12-16T16:22:48.778Z,41.97
2022-12-16T16:25:33.810Z,43.00
2022-12-16T16:28:18.688Z,40.93
2022-12-16T16:31:03.582Z,41.87
2022-12-16T16:33:48.970Z,37.87
2022-12-16T16:36:34.044Z,41.47
2022-12-16T16:39:18.952Z,40.47
2022-12-16T16:42:03.813Z,41.67
2022-12-16T16:44:48.862Z,39.60
2022-12-16T16:47:33.729Z,40.60
2022-12-16T16:50:19.549Z,41.70
2022-12-16T16:53:04.640Z,40.53
2022-12-16T16:55:49.570Z,40.60
2022-12-16T16:58:34.540Z,40.73
2022-12-16T17:01:19.538Z,42.03
2022-12-16T17:04:04.970Z,40.93
2022-12-16T17:07:06.803Z,39.33
2022-12-16T17:09:51.798Z,41.40
2022-12-16T17:12:36.646Z,39.13
2022-12-16T17:15:21.707Z,38.57
2022-12-16T17:18:06.717Z,39.53
2022-12-16T17:20:53.239Z,38.73
2022-12-16T17:23:38.252Z,38.87
2022-12-16T17:26:23.276Z,38.87
2022-12-16T17:29:08.217Z,40.33
2022-12-16T17:31:53.157Z,38.67
2022-12-16T17:34:38.284Z,39.17
2022-12-16T17:37:23.261Z,38.90
2022-12-16T17:40:08.221Z,39.33
2022-12-16T17:42:53.216Z,42.93
2022-12-16T17:45:38.243Z,40.90
2022-12-16T17:48:23.139Z,41.60
2022-12-16T17:51:08.214Z,39.43
2022-12-16T17:53:58.660Z,39.07
2022-12-16T17:56:46.171Z,37.37
2022-12-16T17:59:31.443Z,39.30
2022-12-16T18:02:16.661Z,39.80
2022-12-16T18:05:02.121Z,42.87
2022-12-16T18:07:47.083Z,38.73
2022-12-16T18:10:32.094Z,39.47
2022-12-16T18:13:17.038Z,41.03
2022-12-16T18:16:02.221Z,38.97
2022-12-16T18:18:47.513Z,38.67
2022-12-16T18:21:32.448Z,40.03
2022-12-16T18:24:17.494Z,41.47
2022-12-16T18:27:02.391Z,42.17
2022-12-16T18:29:47.535Z,38.83
2022-12-16T18:32:35.266Z,40.50
2022-12-16T18:35:20.552Z,39.40
2022-12-16T18:38:05.684Z,38.67
2022-12-16T18:40:50.551Z,38.27
2022-12-16T18:43:35.956Z,38.50
2022-12-16T18:46:21.430Z,41.27
2022-12-16T18:49:06.654Z,39.10
2022-12-16T18:51:51.674Z,41.40
2022-12-16T18:54:36.719Z,40.37
2022-12-16T18:57:21.635Z,38.97
2022-12-16T19:00:06.691Z,37.67
2022-12-16T19:02:51.803Z,37.67
2022-12-16T19:05:37.192Z,41.07
2022-12-16T19:08:22.113Z,38.70
2022-12-16T19:11:07.068Z,40.30
2022-12-16T19:13:52.002Z,38.57
2022-12-16T19:16:37.200Z,40.50
2022-12-16T19:19:22.443Z,40.47
2022-12-16T19:22:07.347Z,40.27
2022-12-16T19:24:52.162Z,40.30
2022-12-16T19:27:37.099Z,39.93
2022-12-16T19:30:22.265Z,38.57
2022-12-16T19:33:07.190Z,42.77
2022-12-16T19:35:53.732Z,38.00
2022-12-16T19:38:38.674Z,37.07
2022-12-16T19:41:23.753Z,41.00
2022-12-16T19:44:08.557Z,40.43
2022-12-16T19:46:55.979Z,39.10
2022-12-16T19:49:44.338Z,39.07
2022-12-16T19:52:46.425Z,39.20
2022-12-16T19:55:31.347Z,37.37
2022-12-16T19:58:16.593Z,37.47
2022-12-16T20:01:01.457Z,39.80
2022-12-16T20:03:47.207Z,40.20
2022-12-16T20:06:32.829Z,40.63
2022-12-16T20:09:18.032Z,38.13
2022-12-16T20:12:03.022Z,40.47
2022-12-16T20:14:47.928Z,40.40
2022-12-16T20:17:32.892Z,41.20
2022-12-16T20:20:37.993Z,39.70
2022-12-16T20:23:23.014Z,40.33
2022-12-16T20:26:07.894Z,40.37
2022-12-16T20:28:52.707Z,38.13
2022-12-16T20:31:41.208Z,37.67
2022-12-16T20:34:26.259Z,41.17
2022-12-16T20:37:11.311Z,39.67
2022-12-16T20:43:01.208Z,39.53
2022-12-16T20:45:46.047Z,40.07
2022-12-16T20:48:30.969Z,39.20
2022-12-16T20:54:20.883Z,40.07
2022-12-16T20:57:08.262Z,40.23
2022-12-16T20:59:57.615Z,37.40
2022-12-16T21:02:42.936Z,39.03
2022-12-16T21:05:28.051Z,38.70
2022-12-16T21:08:13.005Z,42.27
2022-12-16T21:10:58.036Z,42.13
2022-12-16T21:13:43.749Z,37.97
2022-12-16T21:16:29.225Z,39.60
2022-12-16T21:19:14.309Z,40.23
2022-12-16T21:21:59.205Z,38.27
2022-12-16T21:24:44.601Z,40.10
2022-12-16T21:27:29.537Z,38.63
2022-12-16T21:30:14.674Z,41.27
2022-12-16T21:33:00.012Z,37.93
2022-12-16T21:35:44.867Z,39.57
2022-12-16T21:38:29.772Z,38.00
2022-12-16T21:41:14.848Z,38.23
2022-12-16T21:44:00.112Z,37.90
2022-12-16T21:46:45.070Z,39.00
2022-12-16T21:49:30.371Z,40.60
2022-12-16T21:52:15.780Z,40.27
2022-12-16T21:55:00.633Z,38.73
2022-12-16T21:57:45.537Z,38.80
2022-12-16T22:00:30.488Z,39.60
2022-12-16T22:03:15.526Z,38.23
2022-12-16T22:06:00.416Z,37.37
2022-12-16T22:08:45.230Z,37.77
2022-12-16T22:11:30.114Z,40.80
2022-12-16T22:14:15.019Z,37.23
2022-12-16T22:17:00.211Z,38.27
2022-12-16T22:19:45.407Z,39.47
2022-12-16T22:22:30.379Z,35.87
2022-12-16T22:25:15.345Z,38.27
2022-12-16T22:28:00.303Z,36.30
2022-12-16T22:30:45.386Z,38.13
2022-12-16T22:33:30.587Z,38.50
2022-12-16T22:36:15.326Z,38.07
2022-12-16T22:36:21.427Z,40.70
2022-12-16T22:39:00.382Z,36.77
2022-12-16T22:41:45.226Z,36.17
2022-12-16T22:44:30.417Z,40.27
2022-12-16T22:47:15.378Z,35.77
2022-12-16T22:50:00.220Z,35.97
2022-12-16T22:52:45.170Z,36.03
2022-12-16T22:55:29.978Z,40.17
2022-12-16T22:58:19.587Z,35.23
2022-12-16T23:01:04.631Z,37.13
2022-12-16T23:03:49.580Z,36.07
2022-12-16T23:06:34.774Z,34.87
2022-12-16T23:09:19.827Z,33.50
2022-12-16T23:12:04.757Z,34.27
2022-12-16T23:14:49.825Z,34.50
2022-12-16T23:17:34.699Z,34.53
2022-12-16T23:20:19.719Z,36.70
2022-12-16T23:23:04.645Z,35.27
2022-12-16T23:25:49.604Z,35.97
2022-12-16T23:28:34.526Z,33.93
2022-12-16T23:31:19.594Z,38.43
2022-12-16T23:34:04.887Z,36.93
2022-12-16T23:36:49.929Z,36.93
2022-12-16T23:39:34.859Z,36.57
2022-12-16T23:42:19.800Z,35.77
2022-12-16T23:45:04.669Z,34.60
2022-12-16T23:47:49.475Z,35.43
2022-12-16T23:50:34.446Z,35.40
2022-12-16T23:53:19.224Z,35.53
2022-12-16T23:56:04.180Z,33.37
2022-12-16T23:58:49.141Z,35.47
